KICL/ICL METAR and TAF weather

Enter ICAO airport designator
Station Type Date Time Source
KICL METAR 2023/02/05 23:55 UTC NOAA

KICL 052355Z AUTO 03004KT 10SM CLR 05/M02 A3011 RMK AO2


Station Type Date Time Source
KICL Decoded METAR 2023/02/05 23:55 UTC NOAA

Clarinda, IA, United States (KICL) 40-43N 095-02W
Feb 05, 2023 - 06:55 PM EST / 2023.02.05 2355 UTC
Wind: from the NNE (030 degrees) at 5 MPH (4 KT):0
Visibility: 10 mile(s):0
Sky conditions: clear
Temperature: 41 F (5 C)
Dew Point: 28 F (-2 C)
Relative Humidity: 60%
Pressure (altimeter): 30.11 in. Hg (1019 hPa)
ob: KICL 052355Z AUTO 03004KT 10SM CLR 05/M02 A3011 RMK AO2
cycle: 0

Station Type Date Time Source
KICL TAF UTC NOAA

Error!

Example: see airport list